createdAt,value
2019-01-25T00:02:08.179Z,15.70
2019-01-25T00:04:38.506Z,16.83
2019-01-25T00:07:08.688Z,17.30
2019-01-25T00:09:39.220Z,17.43
2019-01-25T00:12:09.498Z,15.83
2019-01-25T00:14:40.144Z,15.80
2019-01-25T00:17:10.549Z,16.13
2019-01-25T00:19:41.180Z,15.03
2019-01-25T00:22:11.451Z,15.27
2019-01-25T00:24:41.733Z,15.53
2019-01-25T00:27:12.368Z,15.37
2019-01-25T00:29:42.981Z,15.53
2019-01-25T00:32:13.263Z,15.20
2019-01-25T00:34:43.744Z,14.93
2019-01-25T00:37:14.004Z,15.83
2019-01-25T00:39:45.201Z,15.67
2019-01-25T00:42:15.381Z,15.33
2019-01-25T00:44:45.702Z,15.27
2019-01-25T00:47:16.291Z,15.20
2019-01-25T00:49:46.627Z,14.83
2019-01-25T00:52:16.911Z,14.20
2019-01-25T00:54:47.163Z,15.43
2019-01-25T00:57:17.465Z,14.73
2019-01-25T00:59:47.700Z,14.90
2019-01-25T01:02:17.992Z,14.47
2019-01-25T01:04:48.261Z,15.50
2019-01-25T01:07:19.133Z,14.80
2019-01-25T01:09:49.325Z,15.20
2019-01-25T01:12:19.658Z,14.97
2019-01-25T01:14:51.542Z,15.20
2019-01-25T01:17:21.873Z,15.60
2019-01-25T01:19:52.460Z,15.30
2019-01-25T01:22:23.090Z,16.07
2019-01-25T01:24:53.366Z,15.30
2019-01-25T01:27:23.632Z,15.63
2019-01-25T01:29:53.891Z,14.90
2019-01-25T01:32:24.183Z,14.20
2019-01-25T01:34:54.449Z,15.10
2019-01-25T01:37:24.734Z,15.23
2019-01-25T01:39:54.930Z,15.10
2019-01-25T01:42:25.481Z,15.40
2019-01-25T01:44:56.112Z,14.90
2019-01-25T01:47:26.350Z,13.63
2019-01-25T01:49:57.277Z,14.63
2019-01-25T01:52:27.594Z,15.90
2019-01-25T01:54:57.862Z,14.63
2019-01-25T01:57:28.128Z,14.20
2019-01-25T01:59:58.422Z,14.97
2019-01-25T02:02:28.676Z,16.17
2019-01-25T02:04:59.091Z,14.50
2019-01-25T02:07:29.374Z,15.63
2019-01-25T02:09:59.621Z,16.07
2019-01-25T02:12:29.845Z,15.80
2019-01-25T02:15:00.077Z,15.80
2019-01-25T02:17:30.454Z,16.77
2019-01-25T02:20:00.711Z,16.07
2019-01-25T02:22:31.001Z,16.30
2019-01-25T02:25:01.325Z,16.20
2019-01-25T02:27:31.620Z,15.70
2019-01-25T02:30:02.371Z,15.73
2019-01-25T02:32:33.104Z,16.17
2019-01-25T02:35:03.285Z,17.43
2019-01-25T02:37:33.485Z,16.03
2019-01-25T02:40:04.122Z,15.67
2019-01-25T02:42:34.390Z,17.00
2019-01-25T02:45:04.909Z,15.90
2019-01-25T02:47:35.719Z,16.77
2019-01-25T02:50:08.172Z,16.33
2019-01-25T02:52:38.758Z,17.30
2019-01-25T02:55:09.856Z,16.70
2019-01-25T02:57:40.339Z,17.40
2019-01-25T03:00:14.700Z,17.77
2019-01-25T03:02:45.107Z,15.90
2019-01-25T03:05:17.034Z,16.67
2019-01-25T03:07:47.293Z,16.77
2019-01-25T03:10:17.974Z,17.07
2019-01-25T03:12:49.538Z,17.43
2019-01-25T03:15:21.968Z,17.17
2019-01-25T03:19:36.292Z,16.57
2019-01-25T03:22:06.835Z,15.27
2019-01-25T03:24:37.374Z,16.83
2019-01-25T03:27:07.672Z,17.03
2019-01-25T03:29:38.317Z,17.30
2019-01-25T03:32:08.641Z,17.13
2019-01-25T03:34:39.176Z,16.60
2019-01-25T03:37:09.568Z,15.50
2019-01-25T03:39:40.132Z,16.27
2019-01-25T03:42:10.447Z,16.80
2019-01-25T03:44:40.990Z,16.10
2019-01-25T03:47:11.299Z,16.23
2019-01-25T03:49:41.572Z,17.00
2019-01-25T03:52:12.163Z,16.80
2019-01-25T03:54:42.427Z,16.87
2019-01-25T03:57:12.710Z,16.57
2019-01-25T03:59:42.988Z,15.93
2019-01-25T04:02:13.186Z,16.40
2019-01-25T04:04:43.456Z,16.60
2019-01-25T04:07:13.765Z,15.40
2019-01-25T04:09:44.332Z,16.87
2019-01-25T04:12:14.962Z,16.17
2019-01-25T04:14:45.594Z,16.73
2019-01-25T04:17:15.881Z,16.53
2019-01-25T04:19:46.104Z,16.20
2019-01-25T04:22:16.671Z,16.17
2019-01-25T04:24:47.301Z,15.07
2019-01-25T04:27:17.654Z,15.70
2019-01-25T04:29:48.026Z,15.73
2019-01-25T04:32:18.356Z,15.30
2019-01-25T04:34:48.609Z,15.87
2019-01-25T04:37:19.352Z,15.83
2019-01-25T04:39:49.980Z,17.13
2019-01-25T04:42:21.397Z,16.47
2019-01-25T04:44:53.958Z,16.27
2019-01-25T04:47:28.704Z,17.53
2019-01-25T04:49:58.931Z,15.53
2019-01-25T04:52:29.284Z,17.23
2019-01-25T04:55:01.034Z,16.37
2019-01-25T04:57:32.141Z,16.33
2019-01-25T05:00:02.678Z,17.50
2019-01-25T05:02:33.014Z,16.60
2019-01-25T05:05:03.662Z,15.97
2019-01-25T05:07:35.635Z,18.60
2019-01-25T05:10:06.992Z,16.43
2019-01-25T05:12:38.624Z,16.17
2019-01-25T05:15:09.257Z,16.43
2019-01-25T05:17:41.998Z,15.53
2019-01-25T05:20:13.335Z,17.43
2019-01-25T05:22:45.700Z,16.17
2019-01-25T05:25:22.085Z,17.60
2019-01-25T05:27:52.842Z,17.73
2019-01-25T05:30:23.403Z,17.07
2019-01-25T05:32:54.435Z,16.67
2019-01-25T05:35:24.783Z,16.10
2019-01-25T05:37:55.071Z,17.53
2019-01-25T05:40:26.567Z,16.80
2019-01-25T05:42:57.036Z,18.20
2019-01-25T05:45:27.351Z,18.40
2019-01-25T05:47:57.970Z,17.33
2019-01-25T05:50:28.222Z,17.07
2019-01-25T05:52:58.886Z,17.83
2019-01-25T05:55:30.836Z,17.63
2019-01-25T05:58:03.081Z,17.93
2019-01-25T06:00:35.891Z,17.83
2019-01-25T06:03:10.314Z,17.33
2019-01-25T06:05:40.992Z,16.70
2019-01-25T06:08:32.481Z,16.27
2019-01-25T06:11:10.988Z,16.30
2019-01-25T06:13:46.501Z,17.33
2019-01-25T06:16:17.322Z,16.93
2019-01-25T06:18:47.939Z,16.97
2019-01-25T06:21:18.496Z,17.60
2019-01-25T06:23:51.152Z,16.47
2019-01-25T06:26:21.416Z,17.90
2019-01-25T06:28:52.786Z,17.30
2019-01-25T06:31:23.395Z,16.67
2019-01-25T06:33:54.057Z,16.60
2019-01-25T06:36:24.451Z,17.27
2019-01-25T06:38:55.109Z,17.40
2019-01-25T06:41:25.742Z,18.27
2019-01-25T06:43:56.374Z,16.37
2019-01-25T06:46:27.692Z,17.80
2019-01-25T06:48:58.989Z,19.17
2019-01-25T06:51:29.609Z,18.33
2019-01-25T06:54:00.226Z,18.23
2019-01-25T06:56:30.857Z,18.63
2019-01-25T06:59:18.797Z,19.60
2019-01-25T07:01:56.395Z,17.77
2019-01-25T07:04:26.718Z,17.43
2019-01-25T07:06:56.970Z,19.67
2019-01-25T07:09:27.290Z,17.33
2019-01-25T07:11:57.898Z,17.33
2019-01-25T07:14:28.269Z,16.70
2019-01-25T07:16:58.792Z,18.13
2019-01-25T07:19:29.545Z,17.37
2019-01-25T07:22:00.120Z,17.53
2019-01-25T07:24:30.747Z,16.23
2019-01-25T07:27:02.097Z,16.87
2019-01-25T07:29:33.572Z,16.87
2019-01-25T07:32:04.385Z,17.63
2019-01-25T07:34:34.768Z,16.57
2019-01-25T07:37:04.995Z,17.77
2019-01-25T07:39:35.362Z,17.30
2019-01-25T07:42:05.726Z,18.17
2019-01-25T07:44:36.039Z,18.00
2019-01-25T07:47:06.491Z,17.73
2019-01-25T07:49:37.088Z,17.63
2019-01-25T07:52:07.650Z,17.60
2019-01-25T07:54:38.138Z,16.93
2019-01-25T07:57:08.381Z,18.07
2019-01-25T07:59:38.890Z,18.10
2019-01-25T08:02:09.495Z,18.00
2019-01-25T08:04:39.811Z,18.37
2019-01-25T08:07:10.570Z,19.00
2019-01-25T08:09:40.921Z,16.37
2019-01-25T08:12:11.434Z,18.83
2019-01-25T08:14:42.063Z,18.27
2019-01-25T08:17:12.643Z,17.33
2019-01-25T08:19:42.872Z,15.87
2019-01-25T08:22:13.106Z,16.93
2019-01-25T08:24:43.638Z,22.17
2019-01-25T08:27:13.890Z,18.90
2019-01-25T08:29:44.958Z,17.60
2019-01-25T08:32:15.657Z,18.10
2019-01-25T08:34:45.957Z,18.20
2019-01-25T08:37:16.175Z,17.57
2019-01-25T08:39:51.169Z,17.20
2019-01-25T08:42:21.881Z,17.17
2019-01-25T08:44:52.154Z,16.77
2019-01-25T08:47:22.678Z,17.43
2019-01-25T08:49:57.783Z,16.57
2019-01-25T08:52:25.017Z,18.67
2019-01-25T08:54:55.618Z,17.40
2019-01-25T08:57:28.195Z,16.87
2019-01-25T08:59:58.380Z,18.10
2019-01-25T09:02:28.651Z,16.17
2019-01-25T09:04:59.245Z,16.57
2019-01-25T09:07:29.499Z,18.10
2019-01-25T09:10:00.154Z,17.30
2019-01-25T09:12:30.794Z,17.43
2019-01-25T09:15:01.106Z,17.80
2019-01-25T09:17:31.948Z,16.87
2019-01-25T09:20:02.259Z,16.60
2019-01-25T09:22:32.552Z,17.43
2019-01-25T09:25:02.839Z,17.03
2019-01-25T09:27:33.133Z,16.83
2019-01-25T09:30:03.414Z,16.33
2019-01-25T09:32:33.686Z,17.60
2019-01-25T09:35:06.923Z,17.77
2019-01-25T09:37:37.269Z,16.13
2019-01-25T09:40:09.934Z,16.23
2019-01-25T09:42:40.226Z,15.73
2019-01-25T09:45:10.952Z,16.53
2019-01-25T09:47:41.423Z,16.90
2019-01-25T09:50:14.282Z,17.10
2019-01-25T09:52:44.611Z,15.63
2019-01-25T09:55:17.270Z,15.93
2019-01-25T09:57:48.688Z,15.87
2019-01-25T10:00:25.184Z,15.50
2019-01-25T10:02:56.179Z,15.80
2019-01-25T10:05:26.994Z,15.20
2019-01-25T10:07:58.922Z,16.33
2019-01-25T10:10:29.534Z,15.77
2019-01-25T10:13:00.351Z,15.70
2019-01-25T10:15:30.668Z,14.77
2019-01-25T10:18:00.968Z,15.27
2019-01-25T10:20:32.195Z,15.47
2019-01-25T10:23:02.480Z,15.73
2019-01-25T10:25:32.928Z,15.73
2019-01-25T10:28:03.168Z,14.67
2019-01-25T10:30:33.503Z,15.40
2019-01-25T10:33:04.526Z,15.03
2019-01-25T10:39:05.011Z,14.07
2019-01-25T10:41:35.611Z,14.87
2019-01-25T10:44:08.026Z,14.60
2019-01-25T10:46:38.249Z,14.47
2019-01-25T10:49:08.535Z,13.77
2019-01-25T10:51:39.127Z,14.80
2019-01-25T10:54:09.598Z,13.83
2019-01-25T10:56:41.884Z,14.80
2019-01-25T10:59:11.860Z,13.80
2019-01-25T11:01:42.033Z,14.47
2019-01-25T11:04:12.934Z,13.97
2019-01-25T11:06:43.120Z,14.17
2019-01-25T11:09:15.127Z,15.13
2019-01-25T11:11:45.609Z,14.97
2019-01-25T11:14:15.864Z,14.97
2019-01-25T11:16:46.101Z,14.20
2019-01-25T11:19:16.421Z,14.43
2019-01-25T11:21:46.691Z,14.00
2019-01-25T11:24:17.271Z,13.57
2019-01-25T11:26:49.600Z,13.77
2019-01-25T11:29:20.281Z,13.33
2019-01-25T11:31:50.733Z,12.30
2019-01-25T11:34:21.050Z,12.70
2019-01-25T11:36:51.415Z,12.47
2019-01-25T11:39:21.683Z,11.77
2019-01-25T11:41:51.870Z,11.87
2019-01-25T11:44:22.737Z,12.13
2019-01-25T11:46:53.328Z,11.63
2019-01-25T11:49:23.623Z,10.07
2019-01-25T11:51:53.946Z,9.17
2019-01-25T11:54:24.319Z,6.07
2019-01-25T11:56:54.977Z,6.43
2019-01-25T11:59:25.359Z,5.93
2019-01-25T12:01:55.587Z,6.67
2019-01-25T12:04:26.134Z,6.37
2019-01-25T12:06:56.924Z,7.30
2019-01-25T12:09:27.236Z,7.87
2019-01-25T12:11:58.054Z,8.85
2019-01-25T12:14:28.972Z,8.68
2019-01-25T12:16:59.974Z,8.83
2019-01-25T12:19:30.605Z,9.85
2019-01-25T12:22:02.566Z,10.50
2019-01-25T12:24:33.041Z,9.80
2019-01-25T12:27:03.644Z,8.80
2019-01-25T12:29:38.044Z,8.98
2019-01-25T12:32:08.577Z,10.00
2019-01-25T12:34:39.152Z,10.00
2019-01-25T12:37:10.418Z,10.10
2019-01-25T12:39:40.851Z,10.13
2019-01-25T12:42:11.304Z,11.80
2019-01-25T12:44:41.898Z,10.03
2019-01-25T12:47:12.329Z,9.05
2019-01-25T12:49:43.211Z,8.60
2019-01-25T12:52:13.733Z,8.48
2019-01-25T12:54:44.563Z,10.28
2019-01-25T12:57:15.825Z,10.38
2019-01-25T12:59:46.270Z,10.10
2019-01-25T13:02:16.877Z,9.35
2019-01-25T13:04:48.097Z,9.18
2019-01-25T13:07:19.778Z,9.45
2019-01-25T13:09:50.384Z,9.33
2019-01-25T13:12:25.219Z,10.70
2019-01-25T13:14:54.009Z,10.85
2019-01-25T13:17:25.022Z,10.20
2019-01-25T13:19:55.711Z,9.43
2019-01-25T13:22:26.114Z,8.58
2019-01-25T13:24:57.180Z,7.97
2019-01-25T13:27:28.364Z,7.05
2019-01-25T13:29:59.321Z,6.47
2019-01-25T13:32:29.965Z,6.00
2019-01-25T13:35:00.667Z,5.57
2019-01-25T13:37:31.915Z,5.13
2019-01-25T13:40:02.233Z,4.60
2019-01-25T13:42:33.636Z,5.70
2019-01-25T13:45:04.540Z,5.67
2019-01-25T13:47:36.588Z,6.65
2019-01-25T13:50:09.181Z,6.15
2019-01-25T13:52:39.822Z,7.00
2019-01-25T13:55:12.225Z,7.17
2019-01-25T13:57:43.136Z,9.03
2019-01-25T14:00:17.576Z,9.18
2019-01-25T14:02:48.631Z,7.78
2019-01-25T14:05:20.285Z,6.97
2019-01-25T14:07:51.316Z,8.05
2019-01-25T14:10:24.548Z,7.60
2019-01-25T14:12:55.161Z,6.60
2019-01-25T14:15:25.907Z,6.80
2019-01-25T14:17:56.440Z,6.12
2019-01-25T14:20:28.664Z,6.72
2019-01-25T14:22:59.562Z,7.15
2019-01-25T14:25:30.803Z,5.72
2019-01-25T14:28:01.390Z,7.00
2019-01-25T14:30:38.195Z,6.85
2019-01-25T14:33:09.746Z,6.90
2019-01-25T14:35:41.385Z,6.62
2019-01-25T14:38:16.649Z,5.90
2019-01-25T14:40:47.684Z,5.83
2019-01-25T14:43:18.341Z,3.33
2019-01-25T14:45:49.527Z,3.95
2019-01-25T14:48:20.260Z,3.27
2019-01-25T14:50:51.179Z,4.08
2019-01-25T14:53:21.491Z,4.40
2019-01-25T14:55:52.262Z,3.37
2019-01-25T14:58:23.193Z,3.92
2019-01-25T15:00:54.833Z,3.05
2019-01-25T15:03:25.149Z,3.17
2019-01-25T15:05:55.757Z,3.80
2019-01-25T15:08:26.572Z,5.70
2019-01-25T15:10:57.669Z,3.33
2019-01-25T15:13:28.529Z,2.47
2019-01-25T15:15:59.418Z,3.33
2019-01-25T15:18:29.999Z,2.70
2019-01-25T15:21:01.253Z,2.93
2019-01-25T15:23:31.614Z,3.23
2019-01-25T15:26:02.716Z,4.27
2019-01-25T15:28:34.086Z,3.83
2019-01-25T15:31:05.081Z,4.30
2019-01-25T15:33:36.424Z,6.23
2019-01-25T15:36:08.963Z,5.20
2019-01-25T15:38:41.644Z,5.20
2019-01-25T15:41:24.690Z,5.80
2019-01-25T15:43:55.580Z,6.03
2019-01-25T15:46:27.298Z,5.30
2019-01-25T15:48:58.757Z,4.97
2019-01-25T15:51:30.051Z,4.50
2019-01-25T15:54:02.261Z,4.57
2019-01-25T15:56:32.762Z,4.47
2019-01-25T15:59:06.433Z,5.93
2019-01-25T16:01:37.842Z,5.07
2019-01-25T16:04:09.992Z,5.57
2019-01-25T16:06:41.479Z,4.80
2019-01-25T16:09:16.603Z,6.23
2019-01-25T16:11:47.986Z,7.27
2019-01-25T16:14:20.737Z,7.50
2019-01-25T16:16:54.424Z,7.80
2019-01-25T16:19:25.560Z,7.70
2019-01-25T16:21:57.663Z,7.60
2019-01-25T16:24:29.675Z,8.03
2019-01-25T16:27:01.391Z,9.00
2019-01-25T16:29:34.330Z,9.50
2019-01-25T16:32:06.810Z,10.27
2019-01-25T16:34:38.692Z,10.07
2019-01-25T16:37:09.904Z,10.27
2019-01-25T16:39:41.670Z,11.23
2019-01-25T16:42:13.588Z,10.93
2019-01-25T16:44:45.662Z,9.67
2019-01-25T16:47:18.579Z,9.90
2019-01-25T16:49:50.445Z,10.67
2019-01-25T16:52:22.760Z,9.93
2019-01-25T16:54:53.963Z,9.53
2019-01-25T16:57:27.548Z,9.63
2019-01-25T16:59:59.683Z,8.63
2019-01-25T17:02:32.809Z,8.97
2019-01-25T17:05:06.295Z,9.47
2019-01-25T17:07:36.788Z,9.03
2019-01-25T17:10:07.617Z,9.67
2019-01-25T17:12:38.258Z,9.57
2019-01-25T17:15:09.506Z,11.70
2019-01-25T17:17:41.262Z,9.83
2019-01-25T17:20:17.806Z,9.00
2019-01-25T17:22:44.535Z,8.70
2019-01-25T17:25:15.318Z,9.70
2019-01-25T17:27:46.856Z,9.63
2019-01-25T17:30:26.104Z,11.50
2019-01-25T17:32:59.174Z,10.63
2019-01-25T17:35:33.492Z,8.50
2019-01-25T17:38:07.229Z,10.00
2019-01-25T17:40:46.940Z,9.30
2019-01-25T17:43:17.950Z,8.60
2019-01-25T17:45:50.258Z,8.67
2019-01-25T17:48:23.825Z,9.27
2019-01-25T17:50:55.987Z,8.80
2019-01-25T17:53:28.683Z,8.93
2019-01-25T17:56:01.294Z,11.47
2019-01-25T17:58:36.489Z,10.37
2019-01-25T18:01:10.285Z,10.20
2019-01-25T18:03:45.147Z,11.27
2019-01-25T18:06:18.962Z,11.87
2019-01-25T18:08:51.749Z,13.83
2019-01-25T18:11:24.802Z,14.80
2019-01-25T18:13:58.042Z,10.37
2019-01-25T18:16:33.052Z,10.03
2019-01-25T18:19:06.835Z,11.03
2019-01-25T18:21:40.748Z,10.70
2019-01-25T18:24:14.885Z,15.37
2019-01-25T18:26:49.311Z,10.90
2019-01-25T18:29:44.803Z,11.03
2019-01-25T18:32:27.291Z,9.77
2019-01-25T18:35:01.903Z,11.00
2019-01-25T18:37:43.042Z,10.43
2019-01-25T18:40:17.842Z,9.63
2019-01-25T18:42:53.320Z,11.47
2019-01-25T18:45:27.769Z,9.17
2019-01-25T18:48:03.080Z,9.73
2019-01-25T18:50:36.892Z,9.77
2019-01-25T18:53:10.607Z,9.83
2019-01-25T18:55:44.164Z,10.00
2019-01-25T18:58:18.618Z,9.60
2019-01-25T19:00:54.349Z,8.93
2019-01-25T19:03:28.332Z,9.40
2019-01-25T19:06:03.719Z,9.60
2019-01-25T19:08:39.504Z,10.17
2019-01-25T19:11:13.711Z,9.67
2019-01-25T19:13:49.629Z,9.87
2019-01-25T19:16:24.877Z,9.97
2019-01-25T19:19:02.745Z,9.60
2019-01-25T19:21:37.231Z,9.43
2019-01-25T19:24:12.473Z,9.60
2019-01-25T19:26:47.628Z,12.57
2019-01-25T19:29:23.464Z,15.87
2019-01-25T19:31:57.955Z,15.27
2019-01-25T19:34:31.517Z,14.37
2019-01-25T19:37:05.440Z,12.93
2019-01-25T19:39:41.423Z,11.87
2019-01-25T19:42:17.975Z,10.17
2019-01-25T19:44:54.343Z,7.97
2019-01-25T19:47:29.255Z,7.47
2019-01-25T19:50:05.944Z,8.37
2019-01-25T19:52:41.787Z,7.80
2019-01-25T19:55:18.862Z,8.13
2019-01-25T19:57:53.866Z,8.37
2019-01-25T20:00:38.408Z,8.63
2019-01-25T20:03:15.758Z,8.27
2019-01-25T20:05:50.971Z,7.53
2019-01-25T20:08:26.013Z,8.87
2019-01-25T20:11:01.104Z,6.97
2019-01-25T20:13:39.314Z,6.90
2019-01-25T20:16:15.439Z,6.00
2019-01-25T20:18:51.546Z,6.83
2019-01-25T20:21:27.555Z,6.47
2019-01-25T20:24:04.513Z,7.37
2019-01-25T20:26:41.153Z,6.43
2019-01-25T20:29:15.873Z,10.13
2019-01-25T20:31:51.463Z,6.63
2019-01-25T20:34:25.354Z,6.63
2019-01-25T20:36:59.726Z,5.90
2019-01-25T20:39:34.210Z,7.40
2019-01-25T20:42:09.124Z,13.53
2019-01-25T20:44:45.902Z,9.83
2019-01-25T20:47:20.504Z,8.10
2019-01-25T20:49:56.375Z,7.50
2019-01-25T20:52:30.830Z,7.07
2019-01-25T20:55:06.924Z,8.13
2019-01-25T20:57:40.658Z,24.67
2019-01-25T21:00:26.631Z,11.40
2019-01-25T21:03:00.953Z,10.70
2019-01-25T21:05:35.416Z,9.73
2019-01-25T21:08:11.811Z,9.00
2019-01-25T21:10:48.027Z,6.80
2019-01-25T21:13:21.586Z,7.70
2019-01-25T21:15:56.419Z,8.07
2019-01-25T21:18:30.943Z,8.70
2019-01-25T21:21:04.863Z,8.47
2019-01-25T21:23:39.060Z,7.40
2019-01-25T21:26:12.915Z,7.87
2019-01-25T21:28:47.552Z,7.70
2019-01-25T21:31:20.722Z,7.67
2019-01-25T21:33:54.143Z,8.73
2019-01-25T21:36:30.211Z,8.40
2019-01-25T21:39:06.828Z,8.20
2019-01-25T21:41:40.753Z,7.70
2019-01-25T21:44:16.063Z,9.00
2019-01-25T21:46:50.755Z,8.00
2019-01-25T21:49:25.119Z,9.53
2019-01-25T21:51:58.543Z,14.57
2019-01-25T21:54:31.955Z,10.57
2019-01-25T21:57:04.741Z,16.87
2019-01-25T21:59:38.115Z,13.87
2019-01-25T22:02:11.611Z,14.53
2019-01-25T22:04:44.272Z,16.77
2019-01-25T22:07:15.322Z,8.87
2019-01-25T22:09:46.518Z,9.17
2019-01-25T22:12:20.598Z,9.03
2019-01-25T22:14:53.185Z,8.67
2019-01-25T22:17:25.740Z,17.73
2019-01-25T22:19:59.119Z,10.63
2019-01-25T22:22:30.191Z,8.13
2019-01-25T22:25:01.678Z,7.93
2019-01-25T22:27:32.619Z,8.17
2019-01-25T22:30:03.099Z,7.47
2019-01-25T22:32:33.653Z,7.07
2019-01-25T22:35:04.985Z,7.27
2019-01-25T22:37:35.516Z,7.27
2019-01-25T22:40:08.204Z,7.27
2019-01-25T22:42:38.574Z,7.17
2019-01-25T22:45:12.155Z,7.30
2019-01-25T22:47:43.047Z,6.90
2019-01-25T22:50:19.495Z,7.10
2019-01-25T22:52:50.053Z,6.87
2019-01-25T22:55:21.036Z,7.63
2019-01-25T22:57:51.746Z,7.20
2019-01-25T23:01:03.390Z,7.07
2019-01-25T23:04:34.463Z,7.70
2019-01-25T23:07:10.252Z,7.20
2019-01-25T23:09:52.389Z,7.33
2019-01-25T23:12:22.634Z,7.57
2019-01-25T23:14:53.277Z,6.83
2019-01-25T23:17:24.217Z,7.03
2019-01-25T23:19:54.612Z,6.80
2019-01-25T23:22:24.832Z,7.10
2019-01-25T23:24:56.738Z,6.53
2019-01-25T23:27:27.358Z,6.67
2019-01-25T23:29:57.989Z,7.10
2019-01-25T23:32:28.389Z,6.67
2019-01-25T23:34:58.634Z,6.90
2019-01-25T23:37:28.835Z,6.70
2019-01-25T23:39:59.060Z,6.50
2019-01-25T23:42:29.345Z,5.87
2019-01-25T23:44:59.971Z,6.60
2019-01-25T23:47:30.460Z,6.70
2019-01-25T23:50:00.704Z,6.70
2019-01-25T23:52:31.840Z,6.83
2019-01-25T23:55:02.051Z,6.00
2019-01-25T23:57:32.309Z,7.00
